Time;durP1;ratioP1;P1;durP2;ratioP2;P2;SDS_P1;SDS_P2;PMS_P1;PMS_P2;Temp;Humidity;BMP_temperature;BMP_pressure;BME280_temperature;BME280_humidity;BME280_pressure;Samples;Min_cycle;Max_cycle;Signal;HPM_P1;HPM_P2
2022/04/07 00:01:43;;;;;;;11.67;2.77;;;;;;;;;;5100839;28;20224;-81
2022/04/07 00:04:10;;;;;;;13.20;3.37;;;;;;;;;;5093472;28;20226;-80
2022/04/07 00:06:38;;;;;;;11.07;3.00;;;;;;;;;;5098702;28;20208;-79
2022/04/07 00:09:05;;;;;;;15.60;3.10;;;;;;;;;;5092348;28;20215;-80
2022/04/07 00:11:32;;;;;;;10.50;2.97;;;;;;;;;;5096260;28;20233;-80
2022/04/07 00:14:01;;;;;;;13.87;3.20;;;;;;;;;;5095352;28;20227;-80
2022/04/07 00:16:28;;;;;;;11.27;3.10;;;;;;;;;;5085647;28;20293;-79
2022/04/07 00:18:57;;;;;;;13.03;3.53;;;;;;;;;;5107304;28;20245;-79
2022/04/07 00:21:35;;;;;;;18.10;3.30;;;;;;;;;;5098435;28;20281;-80
2022/04/07 00:24:04;;;;;;;12.33;3.13;;;;;;;;;;5093504;28;20251;-80
2022/04/07 00:26:31;;;;;;;12.13;2.77;;;;;;;;;;5100256;28;20197;-80
2022/04/07 00:28:58;;;;;;;14.20;3.40;;;;;;;;;;5103550;28;20222;-80
2022/04/07 00:31:27;;;;;;;13.90;3.70;;;;;;;;;;5099205;28;20206;-80
2022/04/07 00:33:54;;;;;;;15.00;4.33;;;;;;;;;;5086966;28;20195;-79
2022/04/07 00:36:21;;;;;;;15.27;3.40;;;;;;;;;;5108601;28;20257;-80
2022/04/07 00:38:48;;;;;;;17.57;3.67;;;;;;;;;;5096191;28;20309;-80
2022/04/07 00:41:15;;;;;;;17.07;4.00;;;;;;;;;;5100102;28;20221;-79
2022/04/07 00:43:42;;;;;;;18.77;4.27;;;;;;;;;;5101656;28;20244;-80
2022/04/07 00:46:10;;;;;;;19.30;3.97;;;;;;;;;;5094656;28;20647;-80
2022/04/07 00:48:38;;;;;;;19.67;4.23;;;;;;;;;;5079665;28;20310;-80
2022/04/07 00:51:06;;;;;;;14.87;3.50;;;;;;;;;;5099683;28;20244;-80
2022/04/07 00:53:34;;;;;;;16.33;3.73;;;;;;;;;;5101560;28;20305;-80
2022/04/07 00:56:01;;;;;;;16.20;3.70;;;;;;;;;;5106557;28;20236;-79
2022/04/07 00:58:29;;;;;;;15.70;3.70;;;;;;;;;;5099899;28;20275;-80
2022/04/07 01:00:57;;;;;;;15.03;3.53;;;;;;;;;;5103771;28;20728;-80
2022/04/07 01:03:24;;;;;;;14.80;3.40;;;;;;;;;;5090036;28;20574;-79
2022/04/07 01:05:53;;;;;;;14.63;3.70;;;;;;;;;;5090283;28;20289;-79
2022/04/07 01:08:21;;;;;;;13.33;3.13;;;;;;;;;;5090887;28;20279;-80
2022/04/07 01:10:48;;;;;;;16.80;3.70;;;;;;;;;;5083642;28;20306;-79
2022/04/07 01:13:16;;;;;;;15.47;4.00;;;;;;;;;;5092606;28;20280;-79
2022/04/07 01:15:43;;;;;;;11.73;3.80;;;;;;;;;;5071195;28;20697;-79
2022/04/07 01:18:10;;;;;;;17.90;3.80;;;;;;;;;;5090329;28;20249;-78
2022/04/07 01:20:38;;;;;;;16.10;4.47;;;;;;;;;;5090033;28;20277;-79
2022/04/07 01:23:07;;;;;;;13.10;3.47;;;;;;;;;;5090184;28;20289;-79
2022/04/07 01:25:36;;;;;;;17.83;4.00;;;;;;;;;;5093391;28;20194;-79
2022/04/07 01:28:03;;;;;;;14.83;3.73;;;;;;;;;;5110545;28;20233;-79
2022/04/07 01:30:30;;;;;;;15.77;4.27;;;;;;;;;;5100309;28;20281;-79
2022/04/07 01:32:58;;;;;;;11.93;3.80;;;;;;;;;;5096287;28;20524;-79
2022/04/07 01:35:26;;;;;;;11.00;3.27;;;;;;;;;;5091113;28;20258;-78
2022/04/07 01:37:54;;;;;;;16.37;4.20;;;;;;;;;;5093228;28;20234;-79
2022/04/07 01:40:22;;;;;;;14.87;4.20;;;;;;;;;;5102795;28;20206;-79
2022/04/07 01:42:52;;;;;;;13.23;3.73;;;;;;;;;;5097773;28;20198;-79
2022/04/07 01:45:20;;;;;;;11.07;3.17;;;;;;;;;;5103717;28;20561;-79
2022/04/07 01:47:48;;;;;;;12.70;2.70;;;;;;;;;;5091243;28;20198;-80
2022/04/07 01:50:16;;;;;;;14.63;3.57;;;;;;;;;;5104499;28;20236;-80
2022/04/07 01:52:45;;;;;;;14.90;3.63;;;;;;;;;;5107803;28;20230;-80
2022/04/07 01:55:13;;;;;;;4.10;1.70;;;;;;;;;;5094987;28;20203;-79
2022/04/07 01:57:40;;;;;;;7.17;1.97;;;;;;;;;;5108049;28;20240;-80
2022/04/07 02:00:09;;;;;;;5.63;2.30;;;;;;;;;;5105795;28;20305;-79
2022/04/07 02:02:37;;;;;;;9.70;2.63;;;;;;;;;;5100970;28;20285;-80
2022/04/07 02:05:08;;;;;;;4.97;1.80;;;;;;;;;;5096120;28;20226;-80
2022/04/07 02:07:36;;;;;;;6.07;1.93;;;;;;;;;;5112378;28;20194;-80
2022/04/07 02:10:05;;;;;;;9.33;2.30;;;;;;;;;;5101880;27;20282;-80
2022/04/07 02:12:35;;;;;;;9.03;2.83;;;;;;;;;;5097608;28;20232;-80
2022/04/07 02:15:02;;;;;;;11.83;3.00;;;;;;;;;;5100031;28;20194;-79
2022/04/07 02:17:31;;;;;;;10.73;2.60;;;;;;;;;;5098157;28;20754;-80
2022/04/07 02:19:59;;;;;;;12.90;2.77;;;;;;;;;;5099739;28;20300;-79
2022/04/07 02:22:28;;;;;;;13.60;3.23;;;;;;;;;;5111789;28;20673;-79
2022/04/07 02:24:56;;;;;;;14.23;2.93;;;;;;;;;;5104866;28;20194;-79
2022/04/07 02:27:24;;;;;;;19.97;4.17;;;;;;;;;;5114293;28;20573;-80
2022/04/07 02:29:51;;;;;;;14.93;3.73;;;;;;;;;;5093234;28;20679;-79
2022/04/07 02:32:19;;;;;;;15.53;3.63;;;;;;;;;;5093062;28;20285;-80
2022/04/07 02:34:48;;;;;;;20.40;3.93;;;;;;;;;;5094642;28;20234;-79
2022/04/07 02:37:15;;;;;;;13.60;3.33;;;;;;;;;;5073327;28;20643;-79
2022/04/07 02:39:42;;;;;;;15.87;3.27;;;;;;;;;;5112052;28;20312;-79
2022/04/07 02:42:09;;;;;;;17.47;3.87;;;;;;;;;;5114353;28;20285;-80
2022/04/07 02:44:36;;;;;;;14.30;3.27;;;;;;;;;;5108706;28;20289;-79
2022/04/07 02:47:04;;;;;;;13.70;3.40;;;;;;;;;;5086716;28;21114;-80
2022/04/07 02:49:31;;;;;;;16.80;4.10;;;;;;;;;;5088421;28;20283;-79
2022/04/07 02:52:00;;;;;;;16.33;4.00;;;;;;;;;;5076402;28;20244;-79
2022/04/07 02:54:27;;;;;;;15.37;3.43;;;;;;;;;;5083144;28;20991;-79
2022/04/07 02:56:55;;;;;;;14.77;3.33;;;;;;;;;;5084843;28;20289;-79
2022/04/07 02:59:22;;;;;;;18.87;3.57;;;;;;;;;;5095400;28;20755;-80
2022/04/07 03:01:51;;;;;;;15.10;3.67;;;;;;;;;;5100945;28;20752;-79
2022/04/07 03:04:19;;;;;;;9.13;2.60;;;;;;;;;;5111402;28;20575;-79
2022/04/07 03:06:46;;;;;;;12.77;3.00;;;;;;;;;;5099493;28;20288;-79
2022/04/07 03:09:14;;;;;;;12.70;2.53;;;;;;;;;;5093863;28;20246;-79
2022/04/07 03:11:41;;;;;;;11.83;2.80;;;;;;;;;;5093002;28;20643;-79
2022/04/07 03:14:09;;;;;;;10.10;2.73;;;;;;;;;;5093015;28;20194;-79
2022/04/07 03:16:36;;;;;;;12.93;3.17;;;;;;;;;;5097415;28;20567;-79
2022/04/07 03:19:03;;;;;;;17.80;3.40;;;10.00;99.90;;;;;;5106688;28;20300;-79
2022/04/07 03:21:29;;;;;;;14.03;3.43;;;9.90;99.90;;;;;;5100329;28;20227;-79
2022/04/07 03:23:56;;;;;;;17.80;3.13;;;9.80;99.90;;;;;;5092756;28;20226;-79
2022/04/07 03:26:25;;;;;;;13.37;3.30;;;9.80;99.90;;;;;;5100929;28;20230;-80
2022/04/07 03:28:52;;;;;;;16.83;3.27;;;9.80;99.90;;;;;;5112892;28;20279;-79
2022/04/07 03:31:18;;;;;;;13.47;3.53;;;9.80;99.90;;;;;;5113033;28;20285;-79
2022/04/07 03:33:46;;;;;;;13.73;3.17;;;9.80;99.90;;;;;;5113366;28;20229;-81
2022/04/07 03:36:13;;;;;;;15.67;3.97;;;9.80;99.90;;;;;;5112512;28;20233;-80
2022/04/07 03:38:40;;;;;;;15.17;3.43;;;9.90;99.90;;;;;;5096409;28;20285;-80
2022/04/07 03:41:07;;;;;;;13.03;3.40;;;9.90;99.90;;;;;;5092595;28;20666;-80
2022/04/07 03:43:35;;;;;;;15.90;3.43;;;9.90;99.90;;;;;;5105268;28;20197;-81
2022/04/07 03:46:02;;;;;;;14.67;3.67;;;9.90;99.90;;;;;;5106270;28;20288;-80
2022/04/07 03:48:29;;;;;;;19.80;4.23;;;9.90;99.90;;;;;;5110478;28;20266;-81
2022/04/07 03:50:56;;;;;;;15.80;3.43;;;9.90;99.90;;;;;;5102109;28;20222;-80
2022/04/07 03:53:23;;;;;;;20.80;3.87;;;10.00;99.90;;;;;;5095790;28;20195;-81
2022/04/07 03:55:50;;;;;;;14.63;3.57;;;10.00;99.90;;;;;;5099384;28;20224;-80
2022/04/07 03:58:17;;;;;;;16.50;3.50;;;9.90;99.90;;;;;;5101527;28;20202;-78
2022/04/07 04:00:45;;;;;;;16.47;4.30;;;9.90;99.90;;;;;;5092035;28;20371;-80
2022/04/07 04:03:13;;;;;;;17.60;3.53;;;9.90;99.90;;;;;;5101873;28;20223;-80
2022/04/07 04:05:40;;;;;;;16.93;3.73;;;9.80;99.90;;;;;;5071055;28;20256;-80
2022/04/07 04:08:08;;;;;;;17.20;3.57;;;9.80;99.90;;;;;;5094421;28;20232;-80
2022/04/07 04:10:35;;;;;;;14.77;4.07;;;9.80;99.90;;;;;;5091815;28;20601;-80
2022/04/07 04:13:02;;;;;;;15.70;3.37;;;9.80;99.90;;;;;;5091652;28;20631;-80
2022/04/07 04:15:29;;;;;;;15.47;4.00;;;9.70;99.90;;;;;;5098712;28;20201;-77
2022/04/07 04:17:57;;;;;;;14.07;3.83;;;9.70;99.90;;;;;;5074153;28;20290;-80
2022/04/07 04:20:24;;;;;;;15.93;3.80;;;9.70;99.90;;;;;;5098448;28;20221;-80
2022/04/07 04:22:51;;;;;;;13.33;3.50;;;9.60;99.90;;;;;;5110958;28;20263;-80
2022/04/07 04:25:18;;;;;;;12.60;2.93;;;9.60;99.90;;;;;;5085820;28;20698;-80
2022/04/07 04:27:45;;;;;;;13.07;3.03;;;9.60;99.90;;;;;;5086869;28;20278;-80
2022/04/07 04:30:14;;;;;;;13.03;3.10;;;9.70;99.90;;;;;;5091220;28;20226;-80
2022/04/07 04:32:43;;;;;;;9.97;2.70;;;9.60;99.90;;;;;;5100362;28;20197;-80
2022/04/07 04:35:12;;;;;;;8.23;2.63;;;9.60;99.90;;;;;;5102367;28;20240;-80
2022/04/07 04:37:39;;;;;;;11.33;2.60;;;9.60;99.90;;;;;;5092653;28;20273;-79
2022/04/07 04:40:07;;;;;;;11.07;2.53;;;9.70;99.90;;;;;;5098989;28;20304;-80
2022/04/07 04:42:34;;;;;;;7.97;2.70;;;9.70;99.90;;;;;;5110003;28;20206;-80
2022/04/07 04:45:01;;;;;;;7.80;2.03;;;9.70;99.90;;;;;;5107770;28;20260;-80
2022/04/07 04:47:28;;;;;;;7.70;2.40;;;9.70;99.90;;;;;;5102692;28;20197;-80
2022/04/07 04:49:55;;;;;;;8.43;2.50;;;9.70;99.90;;;;;;5106636;28;20248;-80
2022/04/07 04:52:23;;;;;;;8.83;2.40;;;9.70;99.90;;;;;;5091207;28;20285;-80
2022/04/07 04:54:50;;;;;;;9.77;2.27;;;9.70;99.90;;;;;;5090319;28;20635;-80
2022/04/07 04:57:17;;;;;;;6.57;2.50;;;9.70;99.90;;;;;;5091539;28;20226;-80
2022/04/07 04:59:44;;;;;;;6.50;2.10;;;9.80;99.90;;;;;;5090948;28;20309;-80
2022/04/07 05:02:11;;;;;;;6.40;2.53;;;9.80;99.90;;;;;;5078161;28;20209;-80
2022/04/07 05:04:38;;;;;;;7.00;2.40;;;9.80;99.90;;;;;;5101193;28;20292;-80
2022/04/07 05:07:05;;;;;;;6.50;2.17;;;9.80;99.90;;;;;;5105565;28;20285;-80
2022/04/07 05:09:34;;;;;;;3.20;1.73;;;9.90;99.90;;;;;;5090549;28;20667;-79
2022/04/07 05:12:01;;;;;;;8.97;2.20;;;9.80;99.90;;;;;;5090917;28;20865;-80
2022/04/07 05:14:28;;;;;;;4.57;1.70;;;9.80;99.90;;;;;;5091308;28;20290;-80
2022/04/07 05:16:55;;;;;;;4.70;1.80;;;9.80;99.90;;;;;;5092602;28;20242;-80
2022/04/07 05:19:22;;;;;;;5.13;1.93;;;9.80;99.90;;;;;;5116055;27;20293;-79
2022/04/07 05:21:50;;;;;;;6.33;1.90;;;9.90;99.90;;;;;;5115130;28;20288;-80
2022/04/07 05:24:18;;;;;;;3.43;1.83;;;9.90;99.90;;;;;;5106978;28;20197;-80
2022/04/07 05:26:46;;;;;;;3.77;1.63;;;9.90;99.90;;;;;;5102852;28;20195;-79
2022/04/07 05:29:13;;;;;;;4.47;1.73;;;9.90;99.90;;;;;;5105859;28;20285;-80
2022/04/07 05:31:40;;;;;;;4.73;1.30;;;10.00;99.90;;;;;;5113795;28;20288;-80
2022/04/07 05:34:08;;;;;;;5.63;1.77;;;10.10;99.90;;;;;;5094576;28;20287;-80
2022/04/07 05:36:34;;;;;;;4.03;1.40;;;10.10;99.90;;;;;;5107229;27;20226;-77
2022/04/07 05:39:01;;;;;;;6.50;1.77;;;10.10;99.90;;;;;;5099053;28;20198;-79
2022/04/07 05:41:29;;;;;;;3.67;1.20;;;10.10;99.90;;;;;;5106965;28;20221;-79
2022/04/07 05:43:57;;;;;;;3.47;1.00;;;10.10;99.90;;;;;;5104759;28;20205;-79
2022/04/07 05:46:24;;;;;;;4.10;1.20;;;10.20;99.90;;;;;;5099833;28;20635;-79
2022/04/07 05:48:51;;;;;;;2.87;1.10;;;10.20;99.90;;;;;;5106640;28;20707;-78
2022/04/07 05:51:18;;;;;;;2.60;1.20;;;10.30;99.90;;;;;;5104788;28;20232;-78
2022/04/07 05:53:45;;;;;;;1.70;0.90;;;10.30;99.90;;;;;;5105363;28;20230;-78
2022/04/07 05:56:15;;;;;;;2.70;1.00;;;10.40;99.90;;;;;;5096585;28;20831;-78
2022/04/07 05:58:42;;;;;;;2.37;0.93;;;10.40;99.90;;;;;;5102493;28;20297;-79
2022/04/07 06:01:10;;;;;;;4.33;0.97;;;10.40;99.90;;;;;;5102524;28;20668;-78
2022/04/07 06:03:37;;;;;;;2.10;1.07;;;10.40;99.90;;;;;;5113789;28;20194;-79
2022/04/07 06:06:04;;;;;;;3.23;0.87;;;10.50;99.90;;;;;;5098281;28;20233;-78
2022/04/07 06:08:31;;;;;;;3.03;0.97;;;10.50;99.90;;;;;;5095047;28;20202;-78
2022/04/07 06:10:58;;;;;;;3.30;1.10;;;10.50;99.90;;;;;;5105625;28;20202;-78
2022/04/07 06:13:25;;;;;;;2.67;1.07;;;10.60;99.90;;;;;;5095598;28;20289;-76
2022/04/07 06:15:51;;;;;;;2.07;0.80;;;10.60;99.90;;;;;;5094274;28;20240;-79
2022/04/07 06:18:20;;;;;;;2.80;0.80;;;10.60;99.90;;;;;;5101863;28;20553;-76
2022/04/07 06:20:47;;;;;;;3.63;1.00;;;10.70;99.90;;;;;;5089672;28;20217;-79
2022/04/07 06:23:14;;;;;;;4.80;1.33;;;10.70;99.90;;;;;;5105265;28;20221;-79
2022/04/07 06:25:42;;;;;;;3.87;0.80;;;10.70;99.90;;;;;;5096596;28;20237;-78
2022/04/07 06:28:09;;;;;;;3.40;1.07;;;10.70;99.90;;;;;;5105121;27;20209;-79
2022/04/07 06:30:36;;;;;;;2.93;0.80;;;10.70;99.90;;;;;;5103856;28;20258;-78
2022/04/07 06:33:03;;;;;;;5.63;0.90;;;10.70;99.90;;;;;;5100527;28;20229;-79
2022/04/07 06:35:31;;;;;;;3.73;0.90;;;10.70;99.90;;;;;;5104361;28;20320;-79
2022/04/07 06:37:58;;;;;;;3.27;0.90;;;10.70;99.90;;;;;;5101669;28;20281;-81
2022/04/07 06:40:26;;;;;;;2.50;1.20;;;10.70;99.90;;;;;;5101612;28;20713;-80
2022/04/07 06:42:55;;;;;;;3.97;1.10;;;10.80;99.90;;;;;;5104807;28;20285;-79
2022/04/07 06:45:22;;;;;;;6.10;1.00;;;10.90;99.90;;;;;;5101851;28;20670;-78
2022/04/07 06:47:49;;;;;;;2.53;0.87;;;10.90;99.90;;;;;;5103280;28;20221;-78
2022/04/07 06:50:17;;;;;;;2.00;0.83;;;11.00;99.90;;;;;;5104693;28;20198;-78
2022/04/07 06:52:46;;;;;;;3.53;1.10;;;11.00;99.90;;;;;;5104185;28;20229;-79
2022/04/07 06:55:15;;;;;;;4.13;1.13;;;11.00;99.90;;;;;;5105208;28;20233;-78
2022/04/07 06:57:49;;;;;;;2.93;1.20;;;11.10;99.90;;;;;;5113509;28;20583;-79
2022/04/07 07:00:17;;;;;;;2.80;1.00;;;11.20;99.90;;;;;;5114418;28;20313;-79
2022/04/07 07:02:45;;;;;;;1.80;0.80;;;11.30;99.90;;;;;;5114189;28;20204;-80
2022/04/07 07:05:12;;;;;;;2.47;0.83;;;11.50;99.90;;;;;;5113811;28;20209;-79
2022/04/07 07:07:39;;;;;;;4.67;1.10;;;11.50;99.90;;;;;;5113866;28;20212;-79
2022/04/07 07:10:08;;;;;;;2.30;0.90;;;11.60;99.90;;;;;;5114042;28;20289;-79
2022/04/07 07:12:35;;;;;;;6.17;1.23;;;11.70;99.90;;;;;;5114234;28;20233;-79
2022/04/07 07:15:02;;;;;;;3.30;1.00;;;11.70;99.90;;;;;;5113542;28;20233;-79
2022/04/07 07:17:33;;;;;;;3.77;1.20;;;11.80;99.90;;;;;;5094689;28;20263;-78
2022/04/07 07:20:04;;;;;;;2.93;1.10;;;12.00;99.90;;;;;;5093426;28;20226;-78
2022/04/07 07:22:31;;;;;;;5.27;1.30;;;12.10;99.90;;;;;;5113382;28;20876;-78
2022/04/07 07:24:58;;;;;;;5.23;1.40;;;12.20;99.90;;;;;;5113077;28;20233;-77
2022/04/07 07:27:27;;;;;;;5.43;1.40;;;12.40;99.90;;;;;;5113849;28;20280;-77
2022/04/07 07:29:53;;;;;;;5.03;1.10;;;12.60;99.90;;;;;;5113168;28;20757;-78
2022/04/07 07:32:20;;;;;;;4.77;1.27;;;12.70;99.90;;;;;;5113445;28;20202;-78
2022/04/07 07:34:47;;;;;;;2.20;0.90;;;12.70;99.90;;;;;;5112758;28;20269;-78
2022/04/07 07:37:18;;;;;;;4.97;1.00;;;12.70;99.90;;;;;;5108869;28;20226;-78
2022/04/07 07:39:45;;;;;;;3.97;1.00;;;12.60;99.90;;;;;;5092300;28;20248;-78
2022/04/07 07:42:12;;;;;;;2.50;1.00;;;12.60;99.90;;;;;;5104068;28;20228;-78
2022/04/07 07:44:40;;;;;;;4.23;1.20;;;12.50;99.90;;;;;;5092606;28;20233;-78
2022/04/07 07:47:07;;;;;;;4.17;1.17;;;12.40;99.90;;;;;;5092751;28;20640;-79
2022/04/07 07:49:35;;;;;;;6.10;1.63;;;12.40;99.90;;;;;;5103386;28;20229;-78
2022/04/07 07:52:02;;;;;;;2.77;1.40;;;12.40;99.90;;;;;;5113004;28;20305;-80
2022/04/07 07:54:29;;;;;;;7.10;1.80;;;12.40;99.90;;;;;;5113208;28;20284;-78
2022/04/07 07:56:56;;;;;;;5.87;1.80;;;12.40;99.90;;;;;;5113070;28;20244;-79
2022/04/07 07:59:23;;;;;;;12.27;2.30;;;12.30;99.90;;;;;;5112428;28;20257;-78
2022/04/07 08:01:52;;;;;;;5.80;1.73;;;12.30;99.90;;;;;;5112689;28;20264;-78
2022/04/07 08:04:19;;;;;;;8.67;1.80;;;12.30;99.90;;;;;;5112277;28;20284;-78
2022/04/07 08:06:45;;;;;;;6.27;1.80;;;12.30;99.90;;;;;;5112522;28;20202;-78
2022/04/07 08:09:14;;;;;;;7.20;1.97;;;12.30;99.90;;;;;;5092138;28;20202;-79
2022/04/07 08:11:42;;;;;;;11.43;2.07;;;12.30;99.90;;;;;;5092463;28;20191;-78
2022/04/07 08:14:09;;;;;;;9.30;2.40;;;12.20;99.90;;;;;;5091937;28;20205;-78
2022/04/07 08:16:37;;;;;;;9.93;2.10;;;12.20;99.90;;;;;;5083938;28;20241;-79
2022/04/07 08:19:06;;;;;;;11.20;2.60;;;12.30;99.90;;;;;;5071487;28;20206;-79
2022/04/07 08:21:34;;;;;;;8.70;2.50;;;12.30;99.90;;;;;;5072020;28;20288;-79
2022/04/07 08:24:00;;;;;;;10.90;2.40;;;12.30;99.90;;;;;;5072166;28;20586;-79
2022/04/07 08:26:27;;;;;;;8.77;2.30;;;12.30;99.90;;;;;;5071985;28;20293;-78
2022/04/07 08:28:54;;;;;;;8.90;2.30;;;12.30;99.90;;;;;;5080206;28;20746;-79
2022/04/07 08:31:21;;;;;;;12.77;2.20;;;12.40;99.90;;;;;;5091818;28;20732;-78
2022/04/07 08:33:48;;;;;;;9.40;2.30;;;12.50;99.90;;;;;;5091800;28;20234;-78
2022/04/07 08:36:16;;;;;;;6.93;1.93;;;12.50;99.90;;;;;;5091489;28;20269;-78
2022/04/07 08:38:43;;;;;;;10.07;2.83;;;12.50;99.90;;;;;;5091603;28;20237;-78
2022/04/07 08:41:12;;;;;;;8.47;2.20;;;12.70;99.90;;;;;;5092179;28;20333;-79
2022/04/07 08:43:40;;;;;;;11.43;2.83;;;13.00;99.90;;;;;;5095946;28;20205;-78
2022/04/07 08:46:08;;;;;;;9.47;2.57;;;13.40;99.90;;;;;;5112245;28;20288;-79
2022/04/07 08:48:38;;;;;;;10.60;2.20;;;13.80;99.90;;;;;;5111856;28;20665;-78
2022/04/07 08:51:06;;;;;;;10.23;2.23;;;13.90;99.90;;;;;;5113180;28;20189;-79
2022/04/07 08:53:34;;;;;;;9.43;2.60;;;14.00;99.90;;;;;;5116344;28;20189;-79
2022/04/07 08:56:02;;;;;;;8.33;2.30;;;14.20;99.90;;;;;;5116862;28;20317;-78
2022/04/07 08:58:29;;;;;;;12.93;2.57;;;14.40;99.90;;;;;;5115929;27;20772;-79
2022/04/07 09:00:56;;;;;;;8.47;2.30;;;14.50;99.90;;;;;;5116018;28;20221;-79
2022/04/07 09:03:23;;;;;;;8.00;2.20;;;14.20;99.90;;;;;;5116182;27;20224;-79
2022/04/07 09:05:54;;;;;;;10.50;2.53;;;14.10;99.90;;;;;;5115947;28;20569;-78
2022/04/07 09:08:21;;;;;;;16.17;3.00;;;14.20;99.90;;;;;;5109195;28;20198;-78
2022/04/07 09:10:55;;;;;;;9.23;2.33;;;14.60;99.90;;;;;;5095092;28;20217;-79
2022/04/07 09:13:22;;;;;;;12.73;2.50;;;14.60;99.90;;;;;;5095107;28;20666;-79
2022/04/07 09:15:49;;;;;;;12.07;2.80;;;14.20;99.90;;;;;;5111239;28;20221;-78
2022/04/07 09:18:24;;;;;;;9.40;2.60;;;14.00;99.90;;;;;;5110189;28;20209;-79
2022/04/07 09:20:51;;;;;;;12.57;2.33;;;13.70;99.90;;;;;;5096824;28;20226;-77
2022/04/07 09:23:19;;;;;;;9.50;2.70;;;13.80;99.90;;;;;;5109512;28;20704;-79
2022/04/07 09:25:49;;;;;;;10.10;2.50;;;13.80;99.90;;;;;;5095210;28;20282;-78
2022/04/07 09:28:28;;;;;;;8.60;2.43;;;13.80;99.90;;;;;;5107900;28;20250;-77
2022/04/07 09:30:57;;;;;;;9.43;2.53;;;14.10;99.90;;;;;;5094112;28;20190;-79
2022/04/07 09:33:26;;;;;;;9.53;2.10;;;14.50;99.90;;;;;;5101490;28;20258;-79
2022/04/07 09:36:05;;;;;;;6.47;1.93;;;14.80;99.90;;;;;;5111111;28;20249;-79
2022/04/07 09:38:34;;;;;;;7.43;1.87;;;14.70;99.90;;;;;;5098855;28;20670;-78
2022/04/07 09:41:06;;;;;;;5.10;1.67;;;14.50;99.90;;;;;;5099544;28;20637;-78
2022/04/07 09:43:45;;;;;;;4.17;0.80;;;14.00;99.90;;;;;;5094607;28;20677;-79
2022/04/07 09:46:13;;;;;;;1.07;0.40;;;13.50;99.90;;;;;;5092498;28;20271;-78
2022/04/07 09:48:40;;;;;;;1.30;0.40;;;12.90;99.90;;;;;;5095389;28;20190;-79
2022/04/07 09:51:11;;;;;;;2.13;0.50;;;12.70;99.90;;;;;;5102643;27;20599;-79
2022/04/07 09:53:40;;;;;;;1.57;0.50;;;12.80;99.90;;;;;;5109344;28;20201;-78
2022/04/07 09:56:08;;;;;;;1.00;0.53;;;12.50;99.90;;;;;;5111271;28;20198;-78
2022/04/07 09:58:36;;;;;;;1.17;0.70;;;12.60;99.90;;;;;;5093890;28;20232;-79
2022/04/07 10:01:16;;;;;;;1.02;0.52;;;12.40;99.90;;;;;;4772006;27;10000767;-79
2022/04/07 10:03:45;;;;;;;1.43;0.80;;;12.40;99.90;;;;;;5088282;28;20434;-79
2022/04/07 10:06:14;;;;;;;2.30;0.57;;;12.30;99.90;;;;;;5091873;28;20301;-79
2022/04/07 10:08:42;;;;;;;2.47;0.80;;;12.10;99.90;;;;;;5110697;28;20202;-78
2022/04/07 10:11:10;;;;;;;0.97;0.53;;;12.10;99.90;;;;;;5111784;28;20622;-80
2022/04/07 10:13:38;;;;;;;3.27;0.77;;;12.00;99.90;;;;;;5105982;28;20285;-78
2022/04/07 10:16:06;;;;;;;2.10;0.80;;;12.20;99.90;;;;;;5088797;28;20294;-79
2022/04/07 10:18:39;;;;;;;1.73;0.63;;;12.30;99.90;;;;;;5090396;28;20200;-79
2022/04/07 10:21:10;;;;;;;2.00;0.83;;;12.20;99.90;;;;;;5112413;28;20847;-79
2022/04/07 10:23:48;;;;;;;1.83;0.70;;;12.30;99.90;;;;;;5093585;28;20281;-79
2022/04/07 10:26:17;;;;;;;1.77;0.83;;;12.50;99.90;;;;;;5092399;28;20297;-80
2022/04/07 10:28:55;;;;;;;1.10;0.77;;;12.60;99.90;;;;;;5103573;28;20221;-79
2022/04/07 10:31:22;;;;;;;1.27;0.80;;;12.80;99.90;;;;;;5083714;28;20577;-79
2022/04/07 10:33:51;;;;;;;1.50;0.90;;;13.30;99.90;;;;;;5083789;28;20586;-80
2022/04/07 10:36:19;;;;;;;1.57;0.70;;;13.40;99.90;;;;;;5090646;28;20265;-79
2022/04/07 10:38:49;;;;;;;1.40;0.70;;;13.30;99.90;;;;;;5092531;28;20212;-80
2022/04/07 10:41:47;;;;;;;2.30;0.70;;;13.20;99.90;;;;;;5100284;28;20264;-79
2022/04/07 10:44:16;;;;;;;0.87;0.70;;;12.80;99.90;;;;;;5101683;28;20199;-79
2022/04/07 10:46:43;;;;;;;2.77;1.20;;;12.80;99.90;;;;;;5105021;28;20232;-79
2022/04/07 10:49:12;;;;;;;0.73;0.70;;;12.80;99.90;;;;;;5089509;28;20201;-79
2022/04/07 10:51:44;;;;;;;2.37;0.80;;;12.60;99.90;;;;;;5099761;28;20245;-79
2022/04/07 10:54:11;;;;;;;1.37;0.80;;;12.50;99.90;;;;;;5080722;28;20210;-79
2022/04/07 10:56:39;;;;;;;1.40;1.07;;;12.70;99.90;;;;;;5102429;28;20193;-79
2022/04/07 10:59:14;;;;;;;1.30;0.90;;;12.60;99.90;;;;;;5078475;28;20225;-79
2022/04/07 11:01:57;;;;;;;1.87;1.10;;;12.50;99.90;;;;;;5101199;28;20843;-79
2022/04/07 11:04:50;;;;;;;1.87;1.00;;;12.30;99.90;;;;;;5097619;28;20297;-79
2022/04/07 11:07:22;;;;;;;1.50;0.80;;;12.30;99.90;;;;;;5087067;28;20746;-79
2022/04/07 11:10:14;;;;;;;1.23;0.60;;;12.20;99.90;;;;;;5098355;28;20194;-80
2022/04/07 11:12:45;;;;;;;2.10;0.70;;;12.40;99.90;;;;;;5072965;28;20195;-79
2022/04/07 11:15:32;;;;;;;2.33;0.90;;;12.50;99.90;;;;;;5073127;28;20199;-79
2022/04/07 11:18:04;;;;;;;1.97;0.70;;;12.60;99.90;;;;;;5093224;28;20251;-79
2022/04/07 11:20:32;;;;;;;2.43;0.80;;;12.60;99.90;;;;;;5097607;28;20194;-79
2022/04/07 11:23:01;;;;;;;1.73;0.90;;;12.40;99.90;;;;;;5113707;28;20355;-79
2022/04/07 11:25:30;;;;;;;3.47;0.90;;;12.40;99.90;;;;;;5113265;28;20197;-78
2022/04/07 11:28:11;;;;;;;3.53;1.20;;;12.40;99.90;;;;;;5107291;28;20229;-79
2022/04/07 11:30:50;;;;;;;2.87;1.07;;;12.60;99.90;;;;;;5092402;28;20198;-79
2022/04/07 11:33:39;;;;;;;2.47;1.10;;;12.90;99.90;;;;;;5098354;28;20824;-79
2022/04/07 11:36:15;;;;;;;1.73;0.90;;;13.60;99.90;;;;;;5112977;28;20333;-79
2022/04/07 11:38:46;;;;;;;2.40;0.90;;;14.10;99.90;;;;;;5113445;28;20262;-79
2022/04/07 11:41:15;;;;;;;1.73;0.90;;;15.50;99.90;;;;;;5113231;28;20236;-79
2022/04/07 11:43:43;;;;;;;1.77;1.20;;;16.10;99.90;;;;;;5112945;28;20293;-79
2022/04/07 11:46:12;;;;;;;1.53;0.80;;;16.10;99.90;;;;;;5113421;28;20233;-79
2022/04/07 11:48:40;;;;;;;1.40;1.00;;;16.10;99.90;;;;;;5109148;27;20274;-79
2022/04/07 11:51:11;;;;;;;2.23;0.90;;;15.20;99.90;;;;;;5112715;28;20198;-79
2022/04/07 11:53:41;;;;;;;0.97;0.77;;;14.50;99.90;;;;;;5101604;28;20194;-79
2022/04/07 11:56:16;;;;;;;2.50;0.90;;;14.30;99.90;;;;;;5092446;28;20293;-79
2022/04/07 11:58:44;;;;;;;2.50;0.70;;;14.30;99.90;;;;;;5092487;28;20209;-79
2022/04/07 12:01:13;;;;;;;1.80;0.90;;;14.30;99.90;;;;;;5092517;28;20202;-80
2022/04/07 12:03:40;;;;;;;1.87;1.10;;;14.70;99.90;;;;;;5092652;28;20202;-79
2022/04/07 12:06:09;;;;;;;2.27;0.90;;;15.90;99.90;;;;;;5092144;28;20755;-78
2022/04/07 12:08:36;;;;;;;3.00;0.87;;;18.00;99.90;;;;;;5092783;28;20194;-79
2022/04/07 12:11:06;;;;;;;2.45;0.85;;;19.40;99.90;;;;;;5091956;28;20290;-79
2022/04/07 12:13:34;;;;;;;3.55;0.98;;;19.70;99.90;;;;;;5092322;28;20199;-79
2022/04/07 12:16:02;;;;;;;2.15;0.98;;;21.30;99.90;;;;;;5088350;28;20298;-79
2022/04/07 12:18:29;;;;;;;1.17;0.80;;;20.20;99.90;;;;;;5072117;28;20199;-79
2022/04/07 12:21:00;;;;;;;1.58;0.90;;;18.90;99.90;;;;;;5087623;28;20241;-79
2022/04/07 12:23:28;;;;;;;2.20;0.85;;;18.00;99.90;;;;;;5092272;28;20218;-79
2022/04/07 12:26:01;;;;;;;5.93;1.15;;;16.70;99.90;;;;;;5091399;28;20738;-79
2022/04/07 12:28:38;;;;;;;1.70;0.70;;;15.70;99.90;;;;;;5092679;28;20193;-80
2022/04/07 12:31:11;;;;;;;3.35;1.10;;;15.40;99.90;;;;;;5091799;28;20198;-79
2022/04/07 12:33:43;;;;;;;1.67;0.90;;;15.00;99.90;;;;;;5092301;28;20281;-79
2022/04/07 12:36:11;;;;;;;2.57;0.70;;;15.00;99.90;;;;;;5091501;28;20265;-78
2022/04/07 12:38:40;;;;;;;3.47;1.07;;;15.20;99.90;;;;;;5092008;28;20267;-79
2022/04/07 12:41:12;;;;;;;1.80;0.80;;;16.60;99.90;;;;;;5092003;28;20267;-79
2022/04/07 12:43:50;;;;;;;4.45;0.90;;;17.60;99.90;;;;;;5092318;28;20230;-79
2022/04/07 12:46:17;;;;;;;2.97;1.20;;;17.60;99.90;;;;;;5098120;28;20229;-79
2022/04/07 12:49:04;;;;;;;2.80;0.80;;;17.20;99.90;;;;;;5091944;28;20194;-79
2022/04/07 12:51:33;;;;;;;2.03;0.80;;;17.30;99.90;;;;;;5091859;28;20202;-78
2022/04/07 12:54:12;;;;;;;2.58;0.88;;;17.20;99.90;;;;;;5091998;28;20252;-79
2022/04/07 12:56:41;;;;;;;3.25;1.02;;;18.00;99.90;;;;;;5091632;28;20198;-79
2022/04/07 12:59:10;;;;;;;3.22;0.75;;;18.50;99.90;;;;;;5092108;28;20253;-79
2022/04/07 13:01:38;;;;;;;2.60;1.02;;;18.20;99.90;;;;;;5092148;28;20230;-79
2022/04/07 13:04:08;;;;;;;2.65;0.60;;;18.30;99.90;;;;;;5091822;28;20195;-78
2022/04/07 13:06:36;;;;;;;3.65;0.57;;;18.30;99.90;;;;;;5091643;28;20277;-79
2022/04/07 13:09:04;;;;;;;2.58;0.90;;;18.00;99.90;;;;;;5091400;28;20209;-79
2022/04/07 13:11:36;;;;;;;3.03;0.95;;;18.50;99.90;;;;;;5091545;28;20294;-79
2022/04/07 13:14:04;;;;;;;2.58;0.63;;;18.30;99.90;;;;;;5091682;28;20198;-79
2022/04/07 13:16:33;;;;;;;0.93;0.50;;;17.70;99.90;;;;;;5086880;28;20742;-79
2022/04/07 13:19:00;;;;;;;1.08;0.70;;;17.20;99.90;;;;;;5091787;28;20213;-79